Time;durP1;ratioP1;P1;durP2;ratioP2;P2;SDS_P1;SDS_P2;PMS_P1;PMS_P2;Temp;Humidity;BMP_temperature;BMP_pressure;BME280_temperature;BME280_humidity;BME280_pressure;Samples;Min_cycle;Max_cycle;Signal;HPM_P1;HPM_P2
2023/04/07 05:00:59;;;;;;;;;1.00;1.00;;;;;12.12;59.01;39876.22;5668468;23;45589;-83
2023/04/07 05:03:27;;;;;;;;;1.00;1.00;;;;;12.24;58.72;39795.28;4934790;28;45615;-84
2023/04/07 05:05:53;;;;;;;;;0.00;0.00;;;;;12.02;59.08;39729.69;4936360;28;46099;-83
2023/04/07 05:08:18;;;;;;;;;1.67;1.67;;;;;12.08;58.70;39868.13;4935305;28;45525;-84
2023/04/07 05:10:45;;;;;;;;;1.00;1.00;;;;;12.19;59.10;39254.91;4927332;28;45575;-86
2023/04/07 05:13:10;;;;;;;;;1.67;1.67;;;;;12.16;59.04;38768.72;4933272;28;46619;-86
2023/04/07 05:15:35;;;;;;;;;1.33;1.33;;;;;12.16;59.07;38844.66;4930934;28;45770;-85
2023/04/07 05:18:01;;;;;;;;;1.00;1.00;;;;;11.87;59.05;38612.25;4907979;28;45544;-84
2023/04/07 05:20:26;;;;;;;;;3.00;1.67;;;;;12.12;59.02;39444.69;4933722;28;45275;-87
2023/04/07 05:22:51;;;;;;;;;1.33;1.33;;;;;12.09;59.04;39589.94;4934172;28;45639;-86
2023/04/07 05:25:17;;;;;;;;;3.67;3.67;;;;;12.08;59.17;37942.22;4935159;28;46230;-85
2023/04/07 05:27:42;;;;;;;;;7.00;6.00;;;;;11.74;59.06;38006.91;4920618;28;45553;-88
2023/04/07 05:30:08;;;;;;;;;6.67;5.33;;;;;12.04;59.45;36493.81;4931637;28;45481;-89
2023/04/07 05:32:33;;;;;;;;;5.00;5.00;;;;;12.03;59.75;35221.06;4937850;28;45521;-86
2023/04/07 05:34:58;;;;;;;;;4.33;4.33;;;;;11.79;59.44;35108.97;4937834;28;47113;-88
2023/04/07 05:37:24;;;;;;;;;3.00;3.00;;;;;11.94;59.52;34810.75;4938168;28;45462;-86
2023/04/07 05:39:50;;;;;;;;;3.67;3.67;;;;;11.87;59.58;34515.13;4940241;28;45328;-87
2023/04/07 05:42:15;;;;;;;;;8.00;8.00;;;;;11.98;59.74;33239.81;4935042;28;45900;-86
2023/04/07 05:44:40;;;;;;;;;13.33;9.67;;;;;11.92;59.86;31891.91;4935621;28;46018;-88
2023/04/07 05:47:07;;;;;;;;;6.33;5.33;;;;;11.97;60.16;31207.31;4934840;28;47745;-88
2023/04/07 05:49:34;;;;;;;;;4.00;3.00;;;;;11.79;60.28;31197.09;4924659;28;45742;-89
2023/04/07 05:51:59;;;;;;;;;5.67;3.00;;;;;11.97;59.97;30871.34;4936730;28;45529;-89
2023/04/07 05:54:25;;;;;;;;;3.00;3.00;;;;;11.72;59.70;31864.88;4933089;28;46849;-88
2023/04/07 05:56:53;;;;;;;;;2.00;2.00;;;;;11.43;59.61;31512.69;4936402;28;45558;-84
2023/04/07 05:59:18;;;;;;;;;8.00;5.67;;;;;11.84;60.45;29520.72;4939985;28;45462;-88
2023/04/07 06:01:43;;;;;;;;;8.00;8.00;;;;;11.81;60.14;30526.50;4936763;28;45607;-84
2023/04/07 06:04:09;;;;;;;;;5.33;4.00;;;;;11.90;60.13;29523.97;4920244;28;46306;-87
2023/04/07 06:06:34;;;;;;;;;4.67;4.67;;;;;11.84;60.13;29856.78;4933145;28;45523;-85
2023/04/07 06:09:03;;;;;;;;;4.33;4.33;;;;;11.06;59.90;29144.44;4940359;28;45360;-83
2023/04/07 06:11:28;;;;;;;;;17.00;13.67;;;;;11.44;59.73;28493.16;4935738;28;45283;-83
2023/04/07 06:13:53;;;;;;;;;9.33;9.33;;;;;12.08;60.19;27518.25;4931467;28;45471;-83
2023/04/07 06:16:19;;;;;;;;;11.00;9.67;;;;;12.09;60.73;25840.47;4937090;28;45414;-82
2023/04/07 06:18:44;;;;;;;;;5.00;5.00;;;;;12.06;60.18;27181.53;4935026;28;45542;-81
2023/04/07 06:21:10;;;;;;;;;5.00;5.00;;;;;12.08;60.28;26175.81;4937285;28;46696;-83
2023/04/07 06:23:35;;;;;;;;;5.00;5.00;;;;;11.79;60.36;26162.03;4940684;28;51740;-83
2023/04/07 06:26:00;;;;;;;;;5.00;5.00;;;;;12.08;60.39;26175.81;4941262;28;45315;-81
2023/04/07 06:28:26;;;;;;;;;5.00;5.00;;;;;11.87;60.29;25494.97;4940997;28;45736;-83
2023/04/07 06:30:51;;;;;;;;;3.67;3.67;;;;;12.10;60.50;24163.31;4939292;28;45499;-82
2023/04/07 06:33:17;;;;;;;;;4.67;3.33;;;;;11.92;60.16;25161.88;4940409;28;46040;-81
2023/04/07 06:35:43;;;;;;;;;4.67;4.67;;;;;12.08;60.02;25504.66;4941048;28;45507;-82
2023/04/07 06:38:10;;;;;;;;;3.67;3.67;;;;;12.08;60.03;25169.09;4941071;28;45607;-83
2023/04/07 06:40:35;;;;;;;;;4.00;3.67;;;;;12.28;60.19;24506.78;4938208;28;45535;-82
2023/04/07 06:43:02;;;;;;;;;3.67;3.67;;;;;12.30;60.58;23836.78;4940419;28;46526;-83
2023/04/07 06:45:46;;;;;;;;;5.00;5.00;;;;;12.32;60.53;23837.47;4937136;28;45553;-88
2023/04/07 06:48:11;;;;;;;;;4.67;4.00;;;;;12.34;60.54;21825.56;4935990;28;45324;-82
2023/04/07 06:50:37;;;;;;;;;5.00;3.00;;;;;12.35;60.39;21826.19;4940815;28;45367;-81
2023/04/07 06:53:03;;;;;;;;;4.33;3.33;;;;;12.38;60.62;22162.63;4940553;28;45320;-82
2023/04/07 06:55:28;;;;;;;;;2.33;2.33;;;;;12.28;60.17;22493.84;4941236;28;45379;-81
2023/04/07 06:57:54;;;;;;;;;5.33;4.33;;;;;12.21;60.38;22155.94;4940753;28;45761;-81
2023/04/07 07:00:21;;;;;;;;;9.00;7.00;;;;;12.20;60.91;20143.88;4940482;28;45384;-81
2023/04/07 07:02:47;;;;;;;;;15.33;15.33;;;;;12.48;60.82;19818.91;4940614;28;47231;-80
2023/04/07 07:05:12;;;;;;;;;10.67;9.67;;;;;11.79;60.92;19458.69;4940554;28;45353;-82
2023/04/07 07:07:37;;;;;;;;;5.33;5.00;;;;;12.21;60.51;19473.97;4938080;28;45453;-80
2023/04/07 07:10:03;;;;;;;;;5.00;4.33;;;;;12.52;60.40;20155.75;4939319;28;45471;-80
2023/04/07 07:12:28;;;;;;;;;3.67;2.00;;;;;12.40;59.98;20486.63;4939782;28;47505;-81
2023/04/07 07:14:53;;;;;;;;;3.00;3.00;;;;;12.64;60.33;19825.16;4939902;28;45387;-81
2023/04/07 07:17:19;;;;;;;;;3.33;3.00;;;;;12.67;60.12;20832.41;4939870;28;45452;-80
2023/04/07 07:19:44;;;;;;;;;4.33;3.67;;;;;12.48;59.61;21831.13;4939322;28;45446;-81
2023/04/07 07:22:10;;;;;;;;;5.67;5.67;;;;;12.43;59.56;21829.25;4940496;28;46923;-81
2023/04/07 07:24:35;;;;;;;;;6.33;3.33;;;;;12.64;59.81;21837.69;4940236;28;45523;-81
2023/04/07 07:27:01;;;;;;;;;6.33;6.33;;;;;12.55;59.98;20492.47;4940761;28;45476;-80
2023/04/07 07:29:27;;;;;;;;;8.33;6.67;;;;;12.79;59.67;20836.94;4940262;28;45369;-81
2023/04/07 07:31:52;;;;;;;;;4.00;4.00;;;;;12.87;59.51;21175.88;4940401;28;45285;-80
2023/04/07 07:34:17;;;;;;;;;9.00;6.00;;;;;12.78;59.60;20165.75;4940803;28;45410;-80
2023/04/07 07:36:46;;;;;;;;;4.67;3.67;;;;;12.87;59.40;21175.88;4940631;28;46036;-80
2023/04/07 07:39:12;;;;;;;;;2.33;1.67;;;;;13.02;59.27;21517.22;4939642;28;45367;-80
2023/04/07 07:41:38;;;;;;;;;8.00;5.33;;;;;12.94;59.46;21514.16;4940291;28;45655;-79
2023/04/07 07:44:03;;;;;;;;;6.00;5.00;;;;;13.06;59.41;20176.28;4939707;28;54235;-80
2023/04/07 07:46:28;;;;;;;;;3.00;3.00;;;;;13.01;59.14;21181.28;4940571;28;45461;-80
2023/04/07 07:48:54;;;;;;;;;5.33;4.67;;;;;12.99;59.28;20173.59;4939284;28;45335;-80
2023/04/07 07:51:19;;;;;;;;;9.67;7.67;;;;;13.21;59.16;20181.88;4939049;28;47892;-81
2023/04/07 07:53:45;;;;;;;;;8.67;5.33;;;;;13.35;59.19;19851.28;4940262;28;45521;-80
2023/04/07 07:56:10;;;;;;;;;3.67;3.67;;;;;13.32;59.15;19850.16;4940544;28;45387;-80
2023/04/07 07:58:36;;;;;;;;;5.00;3.00;;;;;13.42;59.02;20525.41;4940248;28;45464;-80
2023/04/07 08:01:01;;;;;;;;;4.67;4.67;;;;;13.27;58.93;20855.72;4939597;28;46146;-81
2023/04/07 08:03:27;;;;;;;;;6.67;5.33;;;;;13.31;58.87;20185.53;4940311;28;45402;-80
2023/04/07 08:05:52;;;;;;;;;3.33;3.33;;;;;13.36;58.72;20187.44;4940376;28;45302;-80
2023/04/07 08:08:17;;;;;;;;;3.00;3.00;;;;;13.38;58.81;20188.22;4940483;28;45318;-80
2023/04/07 08:10:43;;;;;;;;;2.67;2.67;;;;;13.49;58.52;20528.13;4939876;28;46090;-80
2023/04/07 08:13:08;;;;;;;;;5.00;3.33;;;;;13.70;58.51;20536.31;4939802;28;45321;-80
2023/04/07 08:15:34;;;;;;;;;13.67;9.00;;;;;13.55;58.34;20530.25;4940400;28;45309;-79
2023/04/07 08:17:59;;;;;;;;;4.00;4.00;;;;;13.79;58.42;20875.50;4940252;28;45432;-80
2023/04/07 08:20:26;;;;;;;;;5.00;4.67;;;;;13.83;58.26;21213.38;4938960;28;46120;-80
2023/04/07 08:22:51;;;;;;;;;5.33;5.00;;;;;13.60;58.29;20868.16;4939845;28;45443;-80
2023/04/07 08:25:17;;;;;;;;;4.00;4.00;;;;;13.77;58.42;20538.66;4939942;28;45420;-80
2023/04/07 08:27:42;;;;;;;;;2.33;2.33;;;;;13.96;58.39;20882.03;4939763;28;45381;-80
2023/04/07 08:30:08;;;;;;;;;4.00;4.00;;;;;13.81;57.96;20876.28;4939635;28;46153;-80
2023/04/07 08:32:40;;;;;;;;;4.00;4.00;;;;;14.08;57.79;20886.78;4940011;28;45448;-79
2023/04/07 08:35:06;;;;;;;;;3.00;3.00;;;;;14.14;57.67;20553.09;4939947;28;45380;-80
2023/04/07 08:37:32;;;;;;;;;4.00;4.00;;;;;14.21;57.58;20555.63;4940013;28;45388;-80
2023/04/07 08:39:58;;;;;;;;;1.00;1.00;;;;;14.16;57.45;20889.94;4939599;28;47022;-80
2023/04/07 08:42:27;;;;;;;;;15.67;14.67;;;;;14.18;57.61;20890.72;4939275;28;45392;-80
2023/04/07 08:44:55;;;;;;;;;8.00;6.00;;;;;14.38;57.52;20898.47;4939779;28;45365;-80
2023/04/07 08:47:22;;;;;;;;;3.67;3.00;;;;;14.43;56.95;21909.63;4939876;28;45571;-80
2023/04/07 08:49:51;;;;;;;;;8.33;3.33;;;;;14.50;56.98;21912.72;4939299;28;46298;-81
2023/04/07 08:52:25;;;;;;;;;5.00;4.00;;;;;14.29;56.82;21904.28;4939568;28;45392;-80
2023/04/07 08:54:52;;;;;;;;;3.00;3.00;;;;;14.61;56.99;21917.06;4939574;28;45408;-80
2023/04/07 08:57:17;;;;;;;;;4.00;2.67;;;;;14.39;56.81;21908.19;4939607;28;45289;-80
2023/04/07 08:59:46;;;;;;;;;3.00;3.00;;;;;14.54;56.65;21577.63;4939362;28;46755;-80
2023/04/07 09:02:11;;;;;;;;;3.00;3.00;;;;;14.80;56.92;21588.03;4939441;28;45447;-80
2023/04/07 09:04:37;;;;;;;;;6.67;4.00;;;;;14.61;56.71;21580.28;4939851;28;45545;-81
2023/04/07 09:07:02;;;;;;;;;4.00;2.33;;;;;14.91;56.69;22266.06;4939796;28;45527;-81
2023/04/07 09:09:28;;;;;;;;;3.00;3.00;;;;;14.76;55.94;21923.06;4939074;28;46632;-80
2023/04/07 09:11:55;;;;;;;;;2.00;2.00;;;;;14.87;56.08;22264.16;4938974;28;45458;-81
2023/04/07 09:14:20;;;;;;;;;4.00;4.00;;;;;15.05;56.28;22271.50;4939514;28;45460;-81
2023/04/07 09:16:46;;;;;;;;;4.67;4.67;;;;;15.14;55.88;21938.34;4939618;28;45560;-81
2023/04/07 09:19:11;;;;;;;;;4.33;4.33;;;;;15.10;56.02;22273.59;4938968;28;51647;-81
2023/04/07 09:21:50;;;;;;;;;3.00;3.00;;;;;15.10;55.75;21936.69;4939290;28;45443;-80
2023/04/07 09:24:21;;;;;;;;;7.67;4.67;;;;;15.29;55.82;22281.31;4939290;28;45417;-80
2023/04/07 09:26:46;;;;;;;;;4.33;4.33;;;;;15.54;55.39;22291.59;4939050;28;45453;-80
2023/04/07 09:29:18;;;;;;;;;2.67;2.67;;;;;15.63;55.57;21958.41;4938968;28;46290;-80
2023/04/07 09:31:45;;;;;;;;;6.33;4.00;;;;;15.72;55.55;21961.91;4938608;28;45503;-80
2023/04/07 09:34:38;;;;;;;;;3.00;3.00;;;;;15.71;55.31;20949.81;4939088;28;45431;-80
2023/04/07 09:37:06;;;;;;;;;3.00;3.00;;;;;15.96;55.25;20622.31;4937387;28;45506;-80
2023/04/07 09:39:31;;;;;;;;;4.00;4.00;;;;;16.15;54.81;20966.91;4938854;28;46277;-81
2023/04/07 09:41:57;;;;;;;;;4.00;1.67;;;;;16.21;54.76;21306.88;4938314;28;45413;-81
2023/04/07 09:44:24;;;;;;;;;5.00;3.33;;;;;16.27;54.04;22658.94;4938907;28;45252;-81
2023/04/07 09:46:53;;;;;;;;;2.33;2.00;;;;;16.41;54.16;22327.47;4939351;28;45429;-81
2023/04/07 09:49:20;;;;;;;;;4.00;3.00;;;;;16.50;53.97;23006.19;4938376;28;47098;-81
2023/04/07 09:51:53;;;;;;;;;2.00;2.00;;;;;16.86;54.29;19981.44;4938702;28;45510;-81
2023/04/07 09:54:35;;;;;;;;;4.00;2.67;;;;;16.95;52.90;21673.53;4938436;28;45384;-81
2023/04/07 09:57:03;;;;;;;;;5.00;3.33;;;;;17.12;52.89;25061.38;4939081;28;45535;-80
2023/04/07 09:59:29;;;;;;;;;3.00;3.00;;;;;17.23;53.23;24389.72;4938544;28;45460;-80
2023/04/07 10:01:55;;;;;;;;;2.00;2.00;;;;;17.21;52.98;22698.28;4938211;28;45502;-80
2023/04/07 10:04:21;;;;;;;;;2.67;1.00;;;;;17.75;50.50;29154.75;4938882;28;45350;-81
2023/04/07 10:06:47;;;;;;;;;2.00;2.00;;;;;17.95;51.19;27809.25;4938939;28;45400;-81
2023/04/07 10:09:12;;;;;;;;;2.00;2.00;;;;;18.35;50.85;25795.31;4937663;28;47008;-81
2023/04/07 10:11:40;;;;;;;;;4.00;2.00;;;;;18.23;50.57;27823.25;4938550;28;45303;-80
2023/04/07 10:14:06;;;;;;;;;5.33;4.00;;;;;18.75;50.93;27170.63;4938801;28;45309;-81
2023/04/07 10:16:31;;;;;;;;;2.67;2.67;;;;;19.03;49.74;30274.84;4938937;28;45427;-80
2023/04/07 10:18:57;;;;;;;;;6.00;5.00;;;;;19.17;46.53;42747.34;4938466;28;46285;-80
2023/04/07 10:21:22;;;;;;;;;7.67;5.00;;;;;19.50;48.41;37587.53;4938076;28;45405;-80
2023/04/07 10:24:23;;;;;;;;;3.00;3.00;;;;;19.81;46.47;39652.84;4938016;28;45406;-81
2023/04/07 10:26:55;;;;;;;;;3.00;1.00;;;;;20.37;45.25;47145.16;4938722;28;45318;-83
2023/04/07 10:29:23;;;;;;;;;1.00;1.00;;;;;20.86;44.53;51014.47;4937706;28;46644;-83
2023/04/07 10:31:50;;;;;;;;;1.00;1.00;;;;;21.08;44.78;52067.03;4938270;28;45251;-81
2023/04/07 10:34:15;;;;;;;;;1.00;1.00;;;;;20.96;44.16;53240.00;4938394;28;45277;-81
2023/04/07 10:37:12;;;;;;;;;1.33;1.00;;;;;21.63;42.27;58874.75;4938605;28;45360;-81
2023/04/07 10:39:39;;;;;;;;;1.00;1.00;;;;;21.71;42.46;60064.94;4937672;28;47335;-83
2023/04/07 10:42:05;;;;;;;;;1.00;1.00;;;;;21.65;42.71;60340.66;4938087;28;45403;-83
2023/04/07 10:44:39;;;;;;;;;2.67;1.67;;;;;21.41;43.33;60259.22;4939537;28;45335;-81
2023/04/07 10:47:05;;;;;;;;;1.00;1.00;;;;;20.91;43.30;60466.09;4941809;28;45429;-81
2023/04/07 10:49:34;;;;;;;;;1.67;1.00;;;;;21.20;43.40;60278.56;4941286;28;45424;-82
2023/04/07 10:52:12;;;;;;;;;0.67;0.67;;;;;22.03;39.88;62943.75;4941162;28;45349;-82
2023/04/07 10:54:38;;;;;;;;;0.00;0.00;;;;;22.64;40.25;63880.09;4941452;28;45696;-80
2023/04/07 10:57:10;;;;;;;;;1.00;1.00;;;;;23.23;40.57;63230.06;4940388;28;45451;-81
2023/04/07 10:59:40;;;;;;;;;1.00;1.00;;;;;23.78;40.08;63763.66;4941161;28;45388;-82
2023/04/07 11:02:12;;;;;;;;;1.00;1.00;;;;;24.19;39.44;64323.16;4941030;28;45419;-82
2023/04/07 11:04:40;;;;;;;;;0.67;0.00;;;;;24.01;38.24;66643.31;4941293;28;45512;-82
2023/04/07 11:07:06;;;;;;;;;1.00;1.00;;;;;22.82;38.45;66835.75;4940889;28;45491;-83
2023/04/07 11:09:31;;;;;;;;;1.00;1.00;;;;;23.55;37.16;67649.38;4941081;28;45505;-83
2023/04/07 11:11:56;;;;;;;;;0.00;0.00;;;;;23.47;37.07;67567.81;4940977;28;45463;-83
2023/04/07 11:14:26;;;;;;;;;0.00;0.00;;;;;23.46;37.00;67412.25;4941310;28;45966;-83
2023/04/07 11:16:52;;;;;;;;;0.00;0.00;;;;;24.80;36.79;67732.63;4941593;28;45378;-83
2023/04/07 11:19:17;;;;;;;;;0.00;0.00;;;;;25.08;35.94;68248.31;4940645;28;46612;-83
2023/04/07 11:21:43;;;;;;;;;0.00;0.00;;;;;25.31;36.13;68268.72;4940408;28;45416;-83
2023/04/07 11:24:08;;;;;;;;;0.00;0.00;;;;;25.69;35.72;68345.81;4941258;28;45425;-83
2023/04/07 11:26:40;;;;;;;;;0.25;0.25;;;;;26.02;34.81;68748.63;4941262;28;45690;-83
2023/04/07 11:29:06;;;;;;;;;0.00;0.00;;;;;26.12;34.71;68876.97;4940651;28;46304;-83
2023/04/07 11:31:32;;;;;;;;;0.00;0.00;;;;;26.26;34.93;69001.94;4940701;28;45356;-83
2023/04/07 11:34:02;;;;;;;;;0.00;0.00;;;;;26.43;34.60;69146.22;4940759;28;45555;-83
2023/04/07 11:36:30;;;;;;;;;0.00;0.00;;;;;26.17;34.82;69170.22;4940451;28;45400;-81
2023/04/07 11:38:56;;;;;;;;;0.00;0.00;;;;;25.69;33.85;69258.00;4940586;28;46746;-80
2023/04/07 11:41:22;;;;;;;;;0.75;0.00;;;;;25.34;34.23;69390.84;4940403;28;45245;-80
2023/04/07 11:43:48;;;;;;;;;0.00;0.00;;;;;24.93;33.98;69326.94;4940574;28;45339;-80
2023/04/07 11:46:15;;;;;;;;;0.00;0.00;;;;;24.64;33.70;69284.91;4941009;28;45519;-80
2023/04/07 11:48:43;;;;;;;;;0.50;0.50;;;;;24.68;34.16;69391.84;4940406;28;46340;-81
2023/04/07 11:51:19;;;;;;;;;0.00;0.00;;;;;24.64;32.51;69347.72;4940162;28;45377;-80
2023/04/07 11:53:46;;;;;;;;;0.00;0.00;;;;;24.57;33.50;69415.09;4940553;28;45289;-80
2023/04/07 11:56:18;;;;;;;;;0.00;0.00;;;;;24.37;33.95;69377.69;4939643;28;45388;-80
2023/04/07 11:58:47;;;;;;;;;0.00;0.00;;;;;24.02;34.80;69318.25;4940057;28;45824;-82
2023/04/07 12:01:13;;;;;;;;;0.00;0.00;;;;;23.76;33.61;69358.09;4939861;28;45611;-82
2023/04/07 12:03:57;;;;;;;;;0.00;0.00;;;;;23.63;35.07;69332.41;4940664;28;45484;-82
2023/04/07 12:06:34;;;;;;;;;0.00;0.00;;;;;23.98;34.92;69335.13;4940283;28;45585;-82
2023/04/07 12:09:03;;;;;;;;;0.00;0.00;;;;;24.36;35.06;69392.75;4940291;28;45362;-82
2023/04/07 12:11:29;;;;;;;;;0.00;0.00;;;;;24.72;34.64;69383.09;4940039;28;45285;-82
2023/04/07 12:13:54;;;;;;;;;0.00;0.00;;;;;24.59;33.95;69368.81;4939805;28;45245;-82
2023/04/07 12:16:20;;;;;;;;;0.00;0.00;;;;;24.89;34.10;69408.16;4940435;28;46096;-83
2023/04/07 12:18:46;;;;;;;;;0.00;0.00;;;;;24.75;34.22;69470.53;4939987;28;47239;-83
2023/04/07 12:21:11;;;;;;;;;0.00;0.00;;;;;24.55;33.79;69398.59;4939180;28;53236;-80
2023/04/07 12:23:37;;;;;;;;;0.00;0.00;;;;;24.39;33.66;69374.69;4940154;28;45470;-80
2023/04/07 12:26:02;;;;;;;;;0.00;0.00;;;;;24.57;33.61;69409.69;4940065;28;45258;-80
2023/04/07 12:28:27;;;;;;;;;0.00;0.00;;;;;24.52;33.83;69378.78;4939931;28;46103;-80
2023/04/07 12:30:54;;;;;;;;;0.00;0.00;;;;;24.49;34.02;69402.25;4939871;28;45608;-80
2023/04/07 12:33:22;;;;;;;;;0.25;0.25;;;;;24.68;33.32;69405.38;4940028;28;45346;-80
2023/04/07 12:35:47;;;;;;;;;0.00;0.00;;;;;24.73;33.48;69509.31;4939602;28;45372;-80
2023/04/07 12:38:12;;;;;;;;;0.00;0.00;;;;;24.55;33.48;69445.16;4939739;28;47393;-80
2023/04/07 12:40:38;;;;;;;;;0.00;0.00;;;;;24.67;33.78;69439.94;4939737;28;45289;-80
2023/04/07 12:43:04;;;;;;;;;0.00;0.00;;;;;24.56;34.04;69486.91;4939940;28;45229;-80
2023/04/07 12:45:30;;;;;;;;;0.00;0.00;;;;;24.39;33.67;69402.31;4940343;28;45607;-81
2023/04/07 12:47:57;;;;;;;;;0.00;0.00;;;;;24.01;33.51;69398.13;4939376;28;47158;-80
2023/04/07 12:50:24;;;;;;;;;0.00;0.00;;;;;23.23;33.44;69312.91;4942167;28;45465;-79
2023/04/07 12:52:50;;;;;;;;;0.00;0.00;;;;;23.29;33.66;69289.78;4934815;28;45637;-80
2023/04/07 12:55:15;;;;;;;;;0.00;0.00;;;;;23.08;34.46;69319.88;4939701;28;45385;-82
2023/04/07 12:57:49;;;;;;;;;2.00;0.00;;;;;23.76;32.76;69350.63;4939472;28;45452;-86
2023/04/07 13:00:15;;;;;;;;;105.25;89.00;;;;;24.55;33.30;69433.75;4939027;28;45487;-83
2023/04/07 13:02:42;;;;;;;;;13.33;11.67;;;;;25.01;32.92;69431.19;4936330;28;45546;-85
2023/04/07 13:05:08;;;;;;;;;3.67;2.33;;;;;25.05;32.57;69494.88;4939373;28;45515;-84
2023/04/07 13:07:35;;;;;;;;;4.00;2.33;;;;;25.03;32.60;69468.75;4938081;28;45298;-85
2023/04/07 13:10:00;;;;;;;;;1.67;1.67;;;;;24.90;32.61;69466.78;4938771;28;45223;-84
2023/04/07 13:12:26;;;;;;;;;2.00;0.50;;;;;24.85;32.56;69436.47;4938823;28;45370;-83
2023/04/07 13:14:51;;;;;;;;;0.00;0.00;;;;;24.53;32.79;69439.47;4939395;28;45424;-84
2023/04/07 13:17:17;;;;;;;;;1.25;0.50;;;;;24.43;32.81;69428.72;4937869;28;57991;-84
2023/04/07 13:19:45;;;;;;;;;1.00;0.00;;;;;24.52;33.13;69438.28;4938734;28;45592;-84
2023/04/07 13:22:11;;;;;;;;;0.00;0.00;;;;;24.55;32.56;69461.38;4938816;28;45365;-84
2023/04/07 13:24:36;;;;;;;;;0.00;0.00;;;;;25.00;32.58;69521.41;4938965;28;45412;-83
2023/04/07 13:27:01;;;;;;;;;0.00;0.00;;;;;25.05;33.26;69506.31;4938681;28;45968;-83
2023/04/07 13:29:27;;;;;;;;;0.50;0.50;;;;;25.14;32.18;69510.44;4938183;28;45434;-84
2023/04/07 13:31:52;;;;;;;;;0.75;0.75;;;;;25.41;32.83;69518.34;4936841;28;45451;-83
2023/04/07 13:34:18;;;;;;;;;1.00;0.00;;;;;25.29;32.15;69512.16;4938409;28;48776;-83
2023/04/07 13:36:43;;;;;;;;;0.00;0.00;;;;;25.39;32.82;69496.41;4938480;28;46699;-83
2023/04/07 13:39:09;;;;;;;;;0.00;0.00;;;;;25.56;32.22;69560.00;4938223;28;45596;-82
2023/04/07 13:41:34;;;;;;;;;0.50;0.00;;;;;25.62;32.11;69555.75;4938729;28;45431;-83
2023/04/07 13:44:00;;;;;;;;;0.00;0.00;;;;;25.58;32.48;69499.50;4938604;28;46330;-84
2023/04/07 13:46:27;;;;;;;;;0.00;0.00;;;;;25.53;32.38;69586.22;4937863;28;47070;-84
2023/04/07 13:48:52;;;;;;;;;0.00;0.00;;;;;25.44;32.70;69600.44;4938285;28;45431;-84
2023/04/07 13:51:17;;;;;;;;;0.00;0.00;;;;;25.35;32.23;69513.88;4937033;28;45400;-84
2023/04/07 13:53:44;;;;;;;;;0.00;0.00;;;;;24.94;32.26;69452.03;4938605;28;45360;-84
2023/04/07 13:56:09;;;;;;;;;1.00;0.00;;;;;24.93;32.15;69470.34;4938170;28;45479;-84
2023/04/07 13:58:35;;;;;;;;;0.00;0.00;;;;;24.66;31.47;69506.38;4938350;28;45356;-82
2023/04/07 14:01:01;;;;;;;;;0.00;0.00;;;;;24.42;31.39;69405.31;4938076;28;45523;-82
2023/04/07 14:03:27;;;;;;;;;0.00;0.00;;;;;24.01;31.11;69412.22;4938546;28;45354;-82
2023/04/07 14:05:52;;;;;;;;;0.00;0.00;;;;;23.88;31.58;69353.53;4938116;28;46204;-83
2023/04/07 14:08:17;;;;;;;;;23.33;21.00;;;;;23.54;31.46;69370.84;4937924;28;45377;-83
2023/04/07 14:10:43;;;;;;;;;0.50;0.50;;;;;23.44;31.97;69347.56;4938345;28;45526;-83
2023/04/07 14:13:08;;;;;;;;;0.75;0.00;;;;;23.14;31.87;69397.19;4938609;28;45339;-83
2023/04/07 14:15:33;;;;;;;;;0.00;0.00;;;;;22.88;32.54;69347.28;4937837;28;46578;-83
2023/04/07 14:17:59;;;;;;;;;0.00;0.00;;;;;23.02;32.69;69317.56;4937917;28;45425;-83
2023/04/07 14:20:25;;;;;;;;;0.00;0.00;;;;;22.69;32.43;69290.16;4940655;28;45270;-83
2023/04/07 14:22:51;;;;;;;;;0.00;0.00;;;;;22.72;32.58;69323.41;4941734;28;45421;-83
2023/04/07 14:25:16;;;;;;;;;0.00;0.00;;;;;22.63;32.53;69332.13;4941179;28;46310;-80
2023/04/07 14:27:42;;;;;;;;;0.67;0.00;;;;;22.54;33.04;69324.09;4941688;28;45312;-83
2023/04/07 14:30:08;;;;;;;;;0.00;0.00;;;;;22.31;32.53;69299.94;4941260;28;45357;-83
2023/04/07 14:32:33;;;;;;;;;0.00;0.00;;;;;22.32;32.42;69271.50;4941878;28;45777;-83
2023/04/07 14:34:58;;;;;;;;;0.00;0.00;;;;;22.23;32.68;69233.84;4941512;28;46063;-82
2023/04/07 14:37:25;;;;;;;;;0.00;0.00;;;;;22.20;32.43;69249.09;4941707;28;45396;-82
2023/04/07 14:39:51;;;;;;;;;0.00;0.00;;;;;22.11;31.99;69238.97;4941704;28;45394;-82
2023/04/07 14:42:17;;;;;;;;;0.00;0.00;;;;;22.10;31.67;69235.06;4941853;28;45368;-82
2023/04/07 14:44:43;;;;;;;;;0.00;0.00;;;;;21.95;32.38;69188.19;4939706;28;46033;-82
2023/04/07 14:47:08;;;;;;;;;0.00;0.00;;;;;21.87;32.46;69237.91;4941549;28;45389;-82
2023/04/07 14:49:33;;;;;;;;;0.00;0.00;;;;;22.00;32.72;69260.88;4941566;28;45242;-82
2023/04/07 14:51:59;;;;;;;;;0.00;0.00;;;;;22.07;31.85;69248.25;4941746;28;45407;-82
2023/04/07 14:54:24;;;;;;;;;0.00;0.00;;;;;21.76;31.95;69222.69;4941322;28;46932;-82
2023/04/07 14:56:49;;;;;;;;;0.00;0.00;;;;;22.01;32.62;69267.44;4941295;28;45360;-82
2023/04/07 14:59:14;;;;;;;;;0.00;0.00;;;;;22.00;32.69;69207.59;4941217;28;45345;-83
2023/04/07 15:01:40;;;;;;;;;0.00;0.00;;;;;22.00;33.04;69196.81;4941337;28;45587;-83
2023/04/07 15:04:05;;;;;;;;;0.33;0.33;;;;;21.78;33.08;69227.75;4938154;28;47442;-86
2023/04/07 15:06:31;;;;;;;;;0.00;0.00;;;;;21.79;33.26;69225.66;4924280;28;45351;-89
2023/04/07 15:09:18;;;;;;;;;0.00;0.00;;;;;21.92;33.32;69243.84;4944987;28;45266;-91
2023/04/07 15:11:44;;;;;;;;;1.67;0.00;;;;;20.97;33.45;69176.63;4940364;28;45528;-91
2023/04/07 15:14:10;;;;;;;;;0.00;0.00;;;;;21.70;34.05;69178.47;4941353;28;46641;-91
2023/04/07 15:16:35;;;;;;;;;0.00;0.00;;;;;21.19;33.72;69266.81;4941892;28;45504;-92
2023/04/07 15:19:01;;;;;;;;;1.00;1.00;;;;;20.97;34.12;69167.97;4940315;28;45497;-90
2023/04/07 15:21:26;;;;;;;;;0.00;0.00;;;;;20.72;34.62;69220.00;4940439;28;45422;-91
2023/04/07 15:23:51;;;;;;;;;0.00;0.00;;;;;21.28;34.72;69325.34;4938605;28;46241;-91
2023/04/07 15:26:17;;;;;;;;;1.00;0.00;;;;;20.65;34.41;69187.47;4959180;28;45357;-92
2023/04/07 15:28:42;;;;;;;;;9.67;8.33;;;;;20.31;34.86;69061.56;4953521;28;45476;-94
2023/04/07 15:31:08;;;;;;;;;0.00;0.00;;;;;21.04;34.89;69135.97;4930822;28;45616;-91
2023/04/07 15:33:39;;;;;;;;;0.00;0.00;;;;;20.95;34.98;69195.16;4939487;28;45438;-91
2023/04/07 15:36:06;;;;;;;;;1.00;1.00;;;;;20.69;34.58;69146.53;4940688;28;45344;-92
2023/04/07 15:38:31;;;;;;;;;0.00;0.00;;;;;20.76;35.18;69125.31;4940851;28;45401;-90
2023/04/07 15:40:56;;;;;;;;;2.00;0.00;;;;;20.47;35.36;69088.09;4940825;28;45350;-91
2023/04/07 15:43:22;;;;;;;;;0.00;0.00;;;;;20.56;35.13;69123.00;4940220;28;46916;-91
2023/04/07 15:45:48;;;;;;;;;0.00;0.00;;;;;20.47;35.95;69075.25;4937071;28;45429;-90
2023/04/07 15:48:14;;;;;;;;;0.00;0.00;;;;;20.03;35.51;69058.97;4940818;28;45474;-91
2023/04/07 15:50:39;;;;;;;;;0.33;0.33;;;;;19.73;36.06;68991.66;4960266;28;45481;-92
2023/04/07 15:53:05;;;;;;;;;0.00;0.00;;;;;20.42;36.23;69112.88;4959453;28;46455;-92
2023/04/07 15:55:32;;;;;;;;;1.00;1.00;;;;;20.05;36.07;69055.38;4949205;28;45497;-88
2023/04/07 15:58:21;;;;;;;;;1.00;0.00;;;;;19.88;36.26;69035.72;4939423;28;45519;-88
2023/04/07 16:00:47;;;;;;;;;0.00;0.00;;;;;19.89;36.26;69016.06;4893419;28;45581;-88
2023/04/07 16:03:12;;;;;;;;;0.00;0.00;;;;;20.15;35.88;69035.66;4921371;28;46330;-86
2023/04/07 16:05:37;;;;;;;;;0.00;0.00;;;;;20.35;35.87;69055.59;4914428;28;56231;-85
2023/04/07 16:08:05;;;;;;;;;0.00;0.00;;;;;20.01;35.63;68968.00;4926332;28;45632;-91
2023/04/07 16:10:30;;;;;;;;;0.00;0.00;;;;;20.33;36.27;69091.41;4899591;28;45604;-87
2023/04/07 16:12:56;;;;;;;;;0.00;0.00;;;;;20.31;36.31;69085.75;4900116;28;46973;-85
2023/04/07 16:15:21;;;;;;;;;0.00;0.00;;;;;20.03;35.66;69016.00;4927674;28;45386;-88
2023/04/07 16:17:47;;;;;;;;;0.00;0.00;;;;;18.94;35.75;69034.63;4922657;28;45402;-85
2023/04/07 16:20:13;;;;;;;;;0.00;0.00;;;;;20.16;35.92;69106.06;4917576;28;45535;-88
2023/04/07 16:22:50;;;;;;;;;0.00;0.00;;;;;19.73;35.96;69042.63;4916726;28;46243;-83
2023/04/07 16:25:18;;;;;;;;;0.00;0.00;;;;;20.01;36.06;69043.16;4928360;28;45513;-91
2023/04/07 16:27:46;;;;;;;;;0.00;0.00;;;;;19.95;36.56;68993.09;4898672;28;45581;-85
2023/04/07 16:30:15;;;;;;;;;0.00;0.00;;;;;19.35;35.98;68958.94;4893173;28;45356;-85
2023/04/07 16:32:52;;;;;;;;;0.00;0.00;;;;;19.44;36.43;68942.22;4913034;28;46535;-86